Time;durP1;ratioP1;P1;durP2;ratioP2;P2;SDS_P1;SDS_P2;PMS_P1;PMS_P2;Temp;Humidity;BMP_temperature;BMP_pressure;BME280_temperature;BME280_humidity;BME280_pressure;Samples;Min_cycle;Max_cycle;Signal;HPM_P1;HPM_P2
2020/12/20 00:00:17;;;;;;;51.05;19.57;;;;;;;2.15;100.00;100700.53;1771208;81;21056;-75
2020/12/20 00:02:55;;;;;;;47.98;17.40;;;;;;;2.14;100.00;100704.83;1770908;81;21170;-75
2020/12/20 00:05:24;;;;;;;52.93;19.95;;;;;;;2.16;100.00;100711.67;1769863;81;21447;-74
2020/12/20 00:07:52;;;;;;;45.80;17.82;;;;;;;2.23;100.00;100710.20;1785715;80;21009;-76
2020/12/20 00:10:21;;;;;;;44.67;16.75;;;;;;;2.24;100.00;100710.51;1785796;80;21100;-77
2020/12/20 00:12:48;;;;;;;50.63;19.57;;;;;;;2.24;100.00;100712.69;1785878;80;21555;-76
2020/12/20 00:15:17;;;;;;;46.13;20.02;;;;;;;2.24;100.00;100714.05;1785829;80;21072;-76
2020/12/20 00:17:48;;;;;;;48.23;17.82;;;;;;;2.26;100.00;100713.81;1785778;80;23519;-74
2020/12/20 00:20:18;;;;;;;48.28;17.95;;;;;;;2.24;100.00;100709.98;1785751;80;21069;-74
2020/12/20 00:22:46;;;;;;;47.23;17.62;;;;;;;2.23;100.00;100706.14;1785806;80;20931;-73
2020/12/20 00:25:14;;;;;;;40.63;16.93;;;;;;;2.20;100.00;100709.31;1785789;80;21512;-74
2020/12/20 00:27:42;;;;;;;44.33;18.05;;;;;;;2.14;100.00;100707.01;1785761;80;21133;-74
2020/12/20 00:30:09;;;;;;;48.50;17.82;;;;;;;2.14;100.00;100708.89;1785788;80;21144;-74
2020/12/20 00:32:37;;;;;;;41.88;15.53;;;;;;;2.14;100.00;100704.83;1785698;80;21021;-74
2020/12/20 00:35:05;;;;;;;38.55;14.47;;;;;;;2.13;100.00;100705.36;1785755;80;21477;-74
2020/12/20 00:37:33;;;;;;;38.80;15.35;;;;;;;2.13;100.00;100708.59;1785760;80;21076;-73
2020/12/20 00:40:03;;;;;;;38.10;14.70;;;;;;;2.14;100.00;100707.01;1785798;80;20993;-77
2020/12/20 00:42:30;;;;;;;43.75;16.12;;;;;;;2.14;100.00;100703.47;1785896;80;22079;-77
2020/12/20 00:44:58;;;;;;;41.35;15.28;;;;;;;2.14;100.00;100701.59;1785702;80;20997;-77
2020/12/20 00:47:26;;;;;;;42.73;14.87;;;;;;;2.16;100.00;100701.36;1785733;80;21037;-76
2020/12/20 00:49:54;;;;;;;42.78;15.28;;;;;;;2.18;100.00;100698.72;1785744;80;21053;-77
2020/12/20 00:52:21;;;;;;;44.95;15.35;;;;;;;2.19;100.00;100700.89;1785886;80;20934;-76
2020/12/20 00:54:51;;;;;;;37.65;15.38;;;;;;;2.21;100.00;100695.54;1785740;80;21379;-76
2020/12/20 00:57:19;;;;;;;45.63;16.20;;;;;;;2.26;100.00;100696.20;1785715;80;20986;-76
2020/12/20 00:59:47;;;;;;;43.70;15.45;;;;;;;2.25;100.00;100699.97;1785736;80;21135;-76
2020/12/20 01:02:15;;;;;;;36.80;14.50;;;;;;;2.23;100.00;100702.91;1785810;80;21469;-77
2020/12/20 01:04:42;;;;;;;47.25;16.17;;;;;;;2.22;100.00;100692.30;1785329;80;21060;-77
2020/12/20 01:07:10;;;;;;;48.87;16.97;;;;;;;2.24;100.00;100696.96;1790203;80;21564;-78
2020/12/20 01:09:41;;;;;;;43.78;17.60;;;;;;;2.26;100.00;100704.33;1790018;80;21135;-77
2020/12/20 01:12:10;;;;;;;56.65;20.82;;;;;;;2.27;100.00;100705.98;1790271;80;21565;-77
2020/12/20 01:14:54;;;;;;;46.58;17.30;;;;;;;2.32;100.00;100701.48;1873696;76;22738;-75
2020/12/20 01:17:21;;;;;;;47.95;18.70;;;;;;;2.27;100.00;100702.73;1841791;77;21051;-73
2020/12/20 01:19:49;;;;;;;52.10;18.57;;;;;;;2.28;100.00;100707.63;1841777;78;22254;-73
2020/12/20 01:22:18;;;;;;;45.83;17.82;;;;;;;2.27;100.00;100703.27;1841619;78;20956;-74
2020/12/20 01:24:47;;;;;;;54.10;19.87;;;;;;;2.25;100.00;100705.38;1841635;78;20952;-75
2020/12/20 01:27:16;;;;;;;50.83;19.23;;;;;;;2.24;100.00;100709.16;1841640;78;21063;-75
2020/12/20 01:29:44;;;;;;;44.75;18.42;;;;;;;2.22;100.00;100710.73;1841805;78;21498;-75
2020/12/20 01:32:16;;;;;;;53.55;19.92;;;;;;;2.23;100.00;100708.85;1841702;78;21366;-76
2020/12/20 01:34:46;;;;;;;57.65;23.32;;;;;;;2.23;100.00;100707.50;1840586;77;20959;-77
2020/12/20 01:37:14;;;;;;;48.45;19.05;;;;;;;2.22;100.00;100709.91;1808927;79;20944;-77
2020/12/20 01:39:43;;;;;;;56.13;20.30;;;;;;;2.21;100.00;100706.91;1807710;79;20944;-78
2020/12/20 01:42:11;;;;;;;47.25;18.73;;;;;;;2.19;100.00;100707.14;1808638;79;20932;-78
2020/12/20 01:44:39;;;;;;;56.35;20.80;;;;;;;2.18;100.00;100708.20;1808694;79;22159;-78
2020/12/20 01:47:09;;;;;;;52.55;20.32;;;;;;;2.17;100.00;100709.78;1808660;79;21118;-75
2020/12/20 01:49:37;;;;;;;56.98;20.65;;;;;;;2.16;100.00;100708.13;1808597;79;20988;-76
2020/12/20 01:52:05;;;;;;;60.98;22.62;;;;;;;2.18;100.00;100706.02;1779854;79;21471;-76
2020/12/20 01:54:33;;;;;;;57.20;19.45;;;;;;;2.18;100.00;100711.44;1808617;79;21053;-76
2020/12/20 01:57:08;;;;;;;63.95;22.58;;;;;;;2.15;100.00;100707.30;1808055;79;21027;-76
2020/12/20 01:59:38;;;;;;;71.85;23.73;;;;;;;2.13;100.00;100710.77;1805662;79;21109;-75
2020/12/20 02:02:05;;;;;;;67.22;21.97;;;;;;;2.13;100.00;100706.71;1779292;79;21027;-75
2020/12/20 02:04:35;;;;;;;48.92;17.50;;;;;;;2.17;100.00;100712.48;1807720;79;21110;-76
2020/12/20 02:07:02;;;;;;;56.00;20.57;;;;;;;2.19;100.00;100704.43;1808700;79;21475;-75
2020/12/20 02:09:31;;;;;;;55.30;19.60;;;;;;;2.22;100.00;100707.20;1808632;79;21191;-75
2020/12/20 02:12:06;;;;;;;56.25;21.40;;;;;;;2.22;100.00;100701.78;1808558;79;21535;-77
2020/12/20 02:14:35;;;;;;;58.45;20.17;;;;;;;2.23;100.00;100706.14;1807644;79;21027;-76
2020/12/20 02:17:05;;;;;;;53.95;19.48;;;;;;;2.23;100.00;100707.50;1808593;79;20940;-76
2020/12/20 02:19:34;;;;;;;58.13;21.50;;;;;;;2.24;100.00;100707.80;1808419;79;20932;-76
2020/12/20 02:22:14;;;;;;;63.45;22.10;;;;;;;2.26;100.00;100706.51;1873754;76;22648;-75
2020/12/20 02:24:43;;;;;;;64.03;23.57;;;;;;;2.22;100.00;100710.73;1841719;78;20928;-76
2020/12/20 02:27:12;;;;;;;59.23;21.70;;;;;;;2.22;100.00;100707.20;1840269;78;21184;-75
2020/12/20 02:29:42;;;;;;;52.55;19.00;;;;;;;2.22;100.00;100713.98;1840873;78;20940;-76
2020/12/20 02:32:09;;;;;;;55.15;19.65;;;;;;;2.21;100.00;100711.80;1841648;78;21452;-75
2020/12/20 02:34:37;;;;;;;50.88;19.05;;;;;;;2.23;100.00;100715.63;1841663;78;21008;-75
2020/12/20 02:37:05;;;;;;;46.42;17.52;;;;;;;2.23;100.00;100711.56;1808646;79;20968;-74
2020/12/20 02:39:35;;;;;;;47.03;16.40;;;;;;;2.23;100.00;100710.20;1806329;79;21470;-74
2020/12/20 02:42:04;;;;;;;45.90;17.48;;;;;;;2.22;100.00;100712.63;1758787;79;21055;-75
2020/12/20 02:44:34;;;;;;;47.70;17.02;;;;;;;2.21;100.00;100717.22;1808031;79;20889;-74
2020/12/20 02:47:04;;;;;;;38.65;15.05;;;;;;;2.22;100.00;100716.69;1808621;79;20952;-74
2020/12/20 02:49:33;;;;;;;41.42;15.18;;;;;;;2.24;100.00;100719.98;1808624;79;20920;-73
2020/12/20 02:52:03;;;;;;;42.50;16.80;;;;;;;2.23;100.00;100720.52;1806771;79;21151;-74
2020/12/20 02:54:30;;;;;;;52.80;19.15;;;;;;;2.25;100.00;100719.76;1808538;79;21848;-75
2020/12/20 02:57:00;;;;;;;61.18;23.73;;;;;;;2.27;100.00;100724.94;1808521;79;20952;-76
2020/12/20 02:59:45;;;;;;;61.65;22.70;;;;;;;2.30;100.00;100721.77;1807817;79;21062;-76
2020/12/20 03:02:12;;;;;;;55.67;20.57;;;;;;;2.31;100.00;100724.22;1808642;79;21463;-76
2020/12/20 03:04:41;;;;;;;55.48;19.10;;;;;;;2.28;100.00;100726.06;1808578;79;21465;-75
2020/12/20 03:07:09;;;;;;;55.45;19.20;;;;;;;2.24;100.00;100728.94;1808537;79;20932;-76
2020/12/20 03:09:37;;;;;;;49.70;18.55;;;;;;;2.20;100.00;100728.28;1808602;79;20991;-75
2020/12/20 03:12:05;;;;;;;45.98;16.95;;;;;;;2.20;100.00;100735.88;1808568;79;21023;-74
2020/12/20 03:14:33;;;;;;;55.43;19.45;;;;;;;2.22;100.00;100735.66;1808618;79;21472;-77
2020/12/20 03:17:01;;;;;;;55.23;18.77;;;;;;;2.26;100.00;100736.31;1808676;79;21487;-75
2020/12/20 03:19:29;;;;;;;50.98;18.60;;;;;;;2.28;100.00;100736.08;1808591;79;21566;-75
2020/12/20 03:21:58;;;;;;;43.25;16.82;;;;;;;2.30;100.00;100736.67;1808479;79;21530;-74
2020/12/20 03:24:51;;;;;;;46.42;16.50;;;;;;;2.33;100.00;100739.71;1910025;74;22645;-73
2020/12/20 03:27:39;;;;;;;39.88;14.87;;;;;;;2.27;100.00;100743.91;1845827;77;21478;-73
2020/12/20 03:30:08;;;;;;;37.95;14.73;;;;;;;2.26;100.00;100747.67;1769811;77;22079;-71
2020/12/20 03:32:46;;;;;;;38.83;13.70;;;;;;;2.27;100.00;100739.84;1873731;76;22715;-74
2020/12/20 03:35:24;;;;;;;38.23;14.70;;;;;;;2.23;100.00;100736.77;1828500;78;20905;-74
2020/12/20 03:37:55;;;;;;;35.78;12.80;;;;;;;2.23;100.00;100744.91;1806398;79;21345;-73
2020/12/20 03:40:25;;;;;;;39.93;14.57;;;;;;;2.23;100.00;100753.03;1808376;79;21086;-74
2020/12/20 03:42:54;;;;;;;41.45;13.83;;;;;;;2.22;100.00;100754.61;1795030;79;20924;-75
2020/12/20 03:45:23;;;;;;;35.23;13.43;;;;;;;2.21;100.00;100755.67;1775204;80;21494;-74
2020/12/20 03:47:52;;;;;;;41.13;13.95;;;;;;;2.21;100.00;100747.02;1775207;80;20980;-75
2020/12/20 03:50:21;;;;;;;32.17;12.58;;;;;;;2.20;100.00;100752.14;1775149;80;21421;-77
2020/12/20 03:52:49;;;;;;;42.03;14.63;;;;;;;2.21;100.00;100759.20;1774987;80;21032;-75
2020/12/20 03:55:24;;;;;;;38.35;13.95;;;;;;;2.24;100.00;100763.34;1774546;80;20896;-75
2020/12/20 03:57:53;;;;;;;39.98;15.03;;;;;;;2.28;100.00;100760.47;1775139;80;21486;-75
2020/12/20 04:00:22;;;;;;;39.73;14.40;;;;;;;2.28;100.00;100768.06;1774991;80;20936;-78
2020/12/20 04:02:52;;;;;;;40.20;14.53;;;;;;;2.30;100.00;100762.41;1772966;80;21399;-79
2020/12/20 04:05:23;;;;;;;35.98;13.22;;;;;;;2.29;100.00;100768.36;1780557;79;21038;-77
2020/12/20 04:07:51;;;;;;;34.15;13.00;;;;;;;2.27;100.00;100776.42;1792749;80;21124;-77
2020/12/20 04:10:19;;;;;;;35.08;13.78;;;;;;;2.25;100.00;100775.83;1792726;80;21005;-76
2020/12/20 04:12:47;;;;;;;37.20;14.83;;;;;;;2.23;100.00;100777.41;1792845;80;21136;-76
2020/12/20 04:15:16;;;;;;;38.15;14.05;;;;;;;2.26;100.00;100776.95;1792913;79;23532;-74
2020/12/20 04:17:44;;;;;;;36.23;13.18;;;;;;;2.26;100.00;100783.73;1792699;79;20899;-73
2020/12/20 04:20:12;;;;;;;37.65;13.88;;;;;;;2.27;100.00;100790.80;1792845;80;20998;-73
2020/12/20 04:22:53;;;;;;;36.80;12.60;;;;;;;2.31;100.00;100787.89;1873497;75;22687;-74
2020/12/20 04:25:24;;;;;;;38.88;14.18;;;;;;;2.27;100.00;100795.39;1836615;78;20920;-74
2020/12/20 04:27:54;;;;;;;33.33;13.68;;;;;;;2.26;100.00;100791.86;1828611;78;22134;-74
2020/12/20 04:30:24;;;;;;;34.75;13.40;;;;;;;2.28;100.00;100795.69;1841410;78;20984;-72
2020/12/20 04:32:53;;;;;;;33.42;12.60;;;;;;;2.28;100.00;100791.09;1841566;78;20924;-73
2020/12/20 04:35:21;;;;;;;40.48;14.20;;;;;;;2.28;100.00;100794.34;1832171;78;21342;-73
2020/12/20 04:37:49;;;;;;;33.35;13.48;;;;;;;2.27;100.00;100799.45;1808430;79;21102;-73
2020/12/20 04:40:18;;;;;;;34.65;13.65;;;;;;;2.26;100.00;100792.39;1807144;79;21371;-73
2020/12/20 04:42:49;;;;;;;45.52;15.30;;;;;;;2.27;100.00;100792.16;1779715;79;21035;-73
2020/12/20 04:45:17;;;;;;;43.68;15.15;;;;;;;2.29;100.00;100795.98;1808464;79;21554;-74
2020/12/20 04:47:46;;;;;;;39.88;14.83;;;;;;;2.28;100.00;100799.76;1807850;79;21557;-77
2020/12/20 04:50:16;;;;;;;48.02;15.03;;;;;;;2.29;100.00;100800.88;1808282;79;21035;-75
2020/12/20 04:52:44;;;;;;;50.08;16.73;;;;;;;2.30;100.00;100803.89;1808451;78;22096;-74
2020/12/20 04:55:14;;;;;;;49.35;16.73;;;;;;;2.31;100.00;100803.36;1806165;78;20956;-73
2020/12/20 04:58:00;;;;;;;46.80;16.40;;;;;;;2.30;100.00;100807.13;1808256;79;21157;-74
2020/12/20 05:00:29;;;;;;;59.48;17.25;;;;;;;2.30;100.00;100809.84;1808249;79;21035;-73
2020/12/20 05:02:57;;;;;;;56.18;19.35;;;;;;;2.30;100.00;100812.55;1779455;79;21107;-74
2020/12/20 05:05:25;;;;;;;54.93;18.98;;;;;;;2.27;100.00;100810.30;1808386;79;21606;-76
2020/12/20 05:07:54;;;;;;;56.95;18.50;;;;;;;2.22;100.00;100814.22;1808301;79;21007;-76
2020/12/20 05:10:39;;;;;;;33.83;13.58;;;;;;;2.19;100.00;100812.80;1808278;78;21102;-75
2020/12/20 05:13:07;;;;;;;45.78;15.45;;;;;;;2.19;100.00;100814.68;1808397;78;21566;-76
2020/12/20 05:15:36;;;;;;;40.88;13.98;;;;;;;2.18;100.00;100814.38;1809064;79;21106;-74
2020/12/20 05:18:21;;;;;;;37.42;12.45;;;;;;;2.20;100.00;100809.56;1869016;75;22799;-73
2020/12/20 05:20:51;;;;;;;37.08;11.60;;;;;;;2.14;100.00;100818.61;1826122;77;20877;-74
2020/12/20 05:23:20;;;;;;;30.75;10.98;;;;;;;2.16;100.00;100811.91;1820290;78;21327;-74
2020/12/20 05:25:50;;;;;;;33.95;11.78;;;;;;;2.14;100.00;100817.25;1807767;79;21022;-75
2020/12/20 05:28:23;;;;;;;33.55;12.45;;;;;;;2.14;100.00;100814.02;1808059;79;21593;-72
2020/12/20 05:30:52;;;;;;;29.75;11.53;;;;;;;2.17;100.00;100815.44;1807217;79;21007;-75
2020/12/20 05:33:33;;;;;;;36.85;13.05;;;;;;;2.22;100.00;100815.58;1806246;78;21479;-74
2020/12/20 05:36:27;;;;;;;30.57;11.20;;;;;;;2.27;100.00;100816.54;1850100;75;22666;-75
2020/12/20 05:39:16;;;;;;;32.17;12.07;;;;;;;2.24;100.00;100818.88;1806289;79;20924;-74
2020/12/20 05:41:46;;;;;;;30.88;11.03;;;;;;;2.20;100.00;100823.94;1808338;79;22335;-76
2020/12/20 05:44:25;;;;;;;30.92;12.43;;;;;;;2.18;100.00;100827.40;1808242;79;21015;-76
2020/12/20 05:47:05;;;;;;;31.70;12.60;;;;;;;2.19;100.00;100822.81;1873390;76;22644;-73
2020/12/20 05:49:37;;;;;;;31.73;12.53;;;;;;;2.15;100.00;100832.45;1841426;78;20992;-72
2020/12/20 05:52:12;;;;;;;35.75;12.63;;;;;;;2.13;100.00;100827.79;1784679;78;21357;-74
2020/12/20 05:54:44;;;;;;;31.35;12.25;;;;;;;2.12;100.00;100826.96;1841233;77;21018;-75
2020/12/20 05:57:19;;;;;;;33.67;11.93;;;;;;;2.12;100.00;100827.48;1841444;77;20901;-79
2020/12/20 05:59:50;;;;;;;29.52;13.95;;;;;;;2.13;100.00;100835.91;1841434;78;21540;-75
2020/12/20 06:02:20;;;;;;;33.48;13.80;;;;;;;2.13;100.00;100837.27;1841258;77;21542;-75
2020/12/20 06:04:48;;;;;;;36.15;13.35;;;;;;;2.12;100.00;100843.22;1841373;78;21502;-75
2020/12/20 06:07:16;;;;;;;31.65;13.50;;;;;;;2.11;100.00;100851.05;1841267;78;21573;-75
2020/12/20 06:09:56;;;;;;;32.33;13.48;;;;;;;2.10;100.00;100850.74;1841449;78;20912;-76
2020/12/20 06:12:30;;;;;;;37.20;14.93;;;;;;;2.09;100.00;100855.03;1841103;78;21015;-76
2020/12/20 06:14:59;;;;;;;51.75;19.82;;;;;;;2.08;100.00;100849.32;1841416;78;21015;-76
2020/12/20 06:17:29;;;;;;;42.65;15.83;;;;;;;2.08;100.00;100852.03;1841577;78;21537;-76
2020/12/20 06:20:01;;;;;;;49.67;18.70;;;;;;;2.05;100.00;100853.31;1811231;78;21011;-76
2020/12/20 06:22:32;;;;;;;44.75;16.95;;;;;;;2.08;100.00;100859.63;1837555;78;20916;-75
2020/12/20 06:25:02;;;;;;;45.10;15.90;;;;;;;2.10;100.00;100860.23;1841106;78;21102;-78
2020/12/20 06:27:32;;;;;;;40.30;15.03;;;;;;;2.11;100.00;100866.47;1841717;78;20909;-77
2020/12/20 06:30:05;;;;;;;47.23;16.87;;;;;;;2.08;100.00;100871.81;1840686;77;21351;-75
2020/12/20 06:32:46;;;;;;;48.10;18.48;;;;;;;2.08;100.00;100873.70;1841548;78;21026;-81
2020/12/20 06:35:21;;;;;;;46.83;16.65;;;;;;;2.06;100.00;100872.57;1833887;78;21566;-74
2020/12/20 06:37:49;;;;;;;47.83;16.12;;;;;;;2.05;100.00;100867.37;1808481;79;21565;-73
2020/12/20 06:40:34;;;;;;;45.78;16.17;;;;;;;2.03;100.00;100874.37;1808375;79;20988;-73
2020/12/20 06:43:02;;;;;;;51.00;17.12;;;;;;;2.01;100.00;100877.02;1808591;79;21206;-74
2020/12/20 06:48:09;;;;;;;40.55;15.63;;;;;;;2.07;100.00;100878.81;1890077;75;22674;-74
2020/12/20 06:50:43;;;;;;;33.38;12.85;;;;;;;2.01;100.00;100879.72;1861090;77;20943;-74
2020/12/20 06:53:14;;;;;;;45.10;15.43;;;;;;;1.99;100.00;100886.19;1861163;77;22099;-76
2020/12/20 06:55:42;;;;;;;44.60;16.95;;;;;;;1.98;100.00;100888.60;1860982;77;20998;-78
2020/12/20 06:58:17;;;;;;;38.90;14.90;;;;;;;1.98;100.00;100892.66;1860989;77;21046;-75
2020/12/20 07:00:55;;;;;;;34.35;14.45;;;;;;;1.98;100.00;100886.42;1861056;77;20915;-73
2020/12/20 07:03:31;;;;;;;41.00;16.25;;;;;;;1.98;100.00;100891.84;1861046;77;21564;-74
2020/12/20 07:06:13;;;;;;;41.77;14.63;;;;;;;1.98;100.00;100891.31;1861048;77;21372;-79
2020/12/20 07:08:42;;;;;;;41.13;13.75;;;;;;;1.99;100.00;100888.91;1859020;77;21006;-72
2020/12/20 07:11:24;;;;;;;44.90;14.05;;;;;;;2.02;100.00;100895.75;1828100;77;21011;-72
2020/12/20 07:13:54;;;;;;;42.03;15.87;;;;;;;2.03;100.00;100901.47;1861237;77;20967;-73
2020/12/20 07:16:24;;;;;;;44.50;14.75;;;;;;;2.01;100.00;100897.33;1860981;77;20991;-73
2020/12/20 07:19:00;;;;;;;35.60;11.55;;;;;;;2.02;100.00;100897.10;1861077;77;21263;-75
2020/12/20 07:21:32;;;;;;;37.85;12.13;;;;;;;2.03;100.00;100895.22;1861377;77;20931;-81
2020/12/20 07:24:13;;;;;;;68.25;26.97;;;;;;;2.05;100.00;100900.71;1863889;77;20940;-87
2020/12/20 07:26:41;;;;;;;58.02;23.42;;;;;;;2.05;100.00;100895.82;1863500;77;21006;-77
2020/12/20 07:29:08;;;;;;;75.92;29.18;;;;;;;2.06;100.00;100895.59;1863696;77;20939;-83
2020/12/20 07:31:36;;;;;;;56.58;22.75;;;;;;;2.05;100.00;100898.53;1862190;77;21506;-80
2020/12/20 07:34:05;;;;;;;45.48;18.75;;;;;;;2.08;100.00;100899.43;1861391;77;20975;-75
2020/12/20 07:36:33;;;;;;;56.68;20.77;;;;;;;2.09;100.00;100903.80;1836133;77;21002;-74
2020/12/20 07:39:02;;;;;;;56.60;21.00;;;;;;;2.09;100.00;100910.04;1827246;78;20975;-79
2020/12/20 07:41:29;;;;;;;51.30;19.00;;;;;;;2.12;100.00;100912.83;1827557;78;21042;-75
2020/12/20 07:43:59;;;;;;;37.83;14.73;;;;;;;2.14;100.00;100908.01;1827262;78;21403;-78
2020/12/20 07:46:26;;;;;;;56.98;21.35;;;;;;;2.16;100.00;100914.03;1824933;78;20988;-83
2020/12/20 07:48:53;;;;;;;57.00;19.95;;;;;;;2.17;100.00;100918.39;1814316;79;21003;-87
2020/12/20 07:51:24;;;;;;;35.78;15.32;;;;;;;2.19;100.00;100918.46;1813549;79;20937;-77
2020/12/20 07:53:56;;;;;;;37.67;14.13;;;;;;;2.21;100.00;100917.70;1812634;79;20941;-82
2020/12/20 07:56:29;;;;;;;38.35;15.53;;;;;;;2.25;100.00;100922.97;1812615;79;22247;-78
2020/12/20 07:59:04;;;;;;;39.20;14.50;;;;;;;2.27;100.00;100920.86;1812156;79;20897;-79
2020/12/20 08:01:32;;;;;;;47.20;18.90;;;;;;;2.28;100.00;100922.52;1812108;79;21003;-75
2020/12/20 08:04:07;;;;;;;48.35;17.98;;;;;;;2.31;100.00;100922.59;1812026;79;20992;-74
2020/12/20 08:06:50;;;;;;;48.35;17.37;;;;;;;2.32;100.00;100926.92;1809154;79;21054;-80
2020/12/20 08:09:23;;;;;;;51.63;20.88;;;;;;;2.33;100.00;100924.52;1811969;79;21363;-78
2020/12/20 08:11:51;;;;;;;59.65;21.20;;;;;;;2.38;100.00;100932.79;1811956;79;21153;-79
2020/12/20 08:14:21;;;;;;;53.68;20.37;;;;;;;2.42;100.00;100927.74;1785543;79;20936;-80
2020/12/20 08:16:50;;;;;;;70.20;24.77;;;;;;;2.44;100.00;100926.45;1812097;79;20929;-80
2020/12/20 08:19:28;;;;;;;58.65;22.75;;;;;;;2.48;100.00;100928.18;1812085;78;21055;-76
2020/12/20 08:22:07;;;;;;;65.10;25.15;;;;;;;2.50;100.00;100924.19;1812185;79;21189;-77
2020/12/20 08:24:39;;;;;;;62.45;24.47;;;;;;;2.54;100.00;100928.63;1812296;78;21491;-81
2020/12/20 08:27:24;;;;;;;71.37;25.25;;;;;;;2.56;100.00;100926.52;1811411;79;21122;-76
2020/12/20 08:29:55;;;;;;;50.80;21.60;;;;;;;2.56;100.00;100925.98;1811278;79;21083;-84
2020/12/20 08:32:41;;;;;;;48.13;19.45;;;;;;;2.60;100.00;100933.13;1811197;77;20940;-76
2020/12/20 08:35:18;;;;;;;44.15;18.48;;;;;;;2.61;100.00;100930.72;1812166;79;21785;-75
2020/12/20 08:37:46;;;;;;;57.00;21.93;;;;;;;2.61;100.00;100926.13;1812534;79;21082;-76
2020/12/20 08:40:15;;;;;;;82.82;33.78;;;;;;;2.60;100.00;100926.35;1812869;78;21003;-79
2020/12/20 08:42:44;;;;;;;68.95;26.12;;;;;;;2.62;100.00;100924.23;1811479;79;21557;-82
2020/12/20 08:45:22;;;;;;;51.08;20.65;;;;;;;2.63;100.00;100924.01;1811920;78;21162;-82
2020/12/20 08:47:50;;;;;;;37.48;16.67;;;;;;;2.62;100.00;100922.36;1819902;78;21359;-76
2020/12/20 08:50:24;;;;;;;38.45;16.35;;;;;;;2.66;100.00;100924.08;1824616;78;20959;-76
2020/12/20 08:53:19;;;;;;;54.03;20.88;;;;;;;2.68;100.00;100928.74;1822649;78;21015;-76
2020/12/20 08:55:47;;;;;;;52.48;22.02;;;;;;;2.67;100.00;100920.31;1701128;83;21025;-76
2020/12/20 08:58:14;;;;;;;57.17;25.43;;;;;;;2.63;100.00;100921.30;1727729;83;20973;-75
2020/12/20 09:00:43;;;;;;;111.47;43.33;;;;;;;2.62;99.97;100921.53;1727751;82;21207;-81
2020/12/20 09:03:10;;;;;;;75.65;31.02;;;;;;;2.62;99.92;100928.30;1727673;83;20915;-78
2020/12/20 09:05:38;;;;;;;51.10;22.95;;;;;;;2.65;99.98;100925.13;1727761;83;20942;-75
2020/12/20 09:08:05;;;;;;;44.03;18.80;;;;;;;2.68;99.95;100925.20;1727693;82;21005;-76
2020/12/20 09:10:35;;;;;;;43.23;20.92;;;;;;;2.70;99.82;100928.52;1727759;83;21152;-76
2020/12/20 09:13:06;;;;;;;56.30;23.10;;;;;;;2.72;99.63;100927.75;1727696;83;21453;-76
2020/12/20 09:15:35;;;;;;;42.88;20.10;;;;;;;2.71;99.34;100927.45;1727717;83;21045;-76
2020/12/20 09:18:21;;;;;;;50.43;22.52;;;;;;;2.69;99.15;100928.21;1727796;83;20970;-77
2020/12/20 09:20:48;;;;;;;45.83;19.40;;;;;;;2.70;99.10;100927.16;1727718;83;20970;-76
2020/12/20 09:23:23;;;;;;;36.05;17.12;;;;;;;2.72;99.13;100927.23;1727791;83;21576;-75
2020/12/20 09:26:00;;;;;;;33.73;15.72;;;;;;;2.75;99.10;100929.48;1727920;83;22058;-74
2020/12/20 09:28:32;;;;;;;32.03;16.45;;;;;;;2.77;99.01;100929.25;1727733;82;20962;-78
2020/12/20 09:31:01;;;;;;;48.28;20.05;;;;;;;2.78;98.90;100926.83;1727894;83;20946;-77
2020/12/20 09:33:36;;;;;;;41.10;19.67;;;;;;;2.78;98.70;100929.55;1727770;83;21512;-77
2020/12/20 09:36:12;;;;;;;35.38;16.00;;;;;;;2.76;98.44;100926.23;1726971;83;21112;-74
2020/12/20 09:38:45;;;;;;;26.75;11.95;;;;;;;2.79;98.39;100928.48;1726208;82;21596;-75
2020/12/20 09:41:15;;;;;;;29.25;13.45;;;;;;;2.81;98.18;100928.55;1726194;83;21041;-72
2020/12/20 09:43:44;;;;;;;28.35;12.40;;;;;;;2.79;97.51;100931.20;1726216;83;21053;-73
2020/12/20 09:46:21;;;;;;;28.87;13.53;;;;;;;2.78;97.32;100928.19;1726157;83;21484;-73
2020/12/20 09:48:49;;;;;;;24.57;11.88;;;;;;;2.80;97.18;100932.85;1714081;83;20930;-73
2020/12/20 09:51:17;;;;;;;28.45;12.35;;;;;;;2.83;97.17;100927.80;1726177;83;22349;-73
2020/12/20 09:53:45;;;;;;;32.42;14.58;;;;;;;2.90;97.09;100929.02;1726391;82;21030;-73
2020/12/20 09:56:13;;;;;;;28.80;14.28;;;;;;;2.95;96.74;100930.52;1732530;82;21614;-73
2020/12/20 09:58:41;;;;;;;29.65;14.50;;;;;;;2.93;96.11;100925.84;1732505;82;20934;-74
2020/12/20 10:01:19;;;;;;;41.50;17.52;;;;;;;2.94;96.17;100928.86;1732416;82;20955;-75
2020/12/20 10:03:46;;;;;;;54.38;18.25;;;;;;;2.96;96.15;100924.03;1732469;82;21214;-76
2020/12/20 10:06:15;;;;;;;49.65;18.82;;;;;;;2.96;95.95;100921.31;1732459;82;21140;-76
2020/12/20 10:08:42;;;;;;;32.67;14.35;;;;;;;2.97;95.75;100921.61;1732393;82;20946;-76
2020/12/20 10:11:09;;;;;;;34.03;15.05;;;;;;;2.96;95.37;100927.56;1732387;82;20954;-77
2020/12/20 10:13:37;;;;;;;30.92;13.83;;;;;;;2.98;95.71;100924.63;1731985;82;21596;-75
2020/12/20 10:16:04;;;;;;;36.65;14.58;;;;;;;2.98;95.25;100927.34;1732324;82;21138;-77
2020/12/20 10:18:34;;;;;;;32.55;14.68;;;;;;;2.93;94.79;100924.49;1732074;82;21057;-86
2020/12/20 10:21:02;;;;;;;25.50;13.22;;;;;;;2.90;94.82;100922.24;1732793;82;21084;-81
2020/12/20 10:23:29;;;;;;;20.70;11.20;;;;;;;2.91;94.88;100921.18;1732663;82;21059;-79
2020/12/20 10:25:56;;;;;;;25.82;12.45;;;;;;;2.96;94.85;100922.67;1732403;82;21128;-78
2020/12/20 10:28:24;;;;;;;25.68;12.33;;;;;;;2.95;94.53;100923.73;1732506;82;21212;-85
2020/12/20 10:30:51;;;;;;;28.83;14.38;;;;;;;2.93;94.30;100920.42;1732567;82;21572;-85
2020/12/20 10:33:18;;;;;;;22.32;11.78;;;;;;;2.91;94.10;100919.30;1732497;82;21499;-77
2020/12/20 10:35:46;;;;;;;26.62;13.58;;;;;;;2.92;94.13;100916.05;1732297;82;20950;-75
2020/12/20 10:38:13;;;;;;;46.28;22.42;;;;;;;2.95;94.00;100915.59;1732357;82;21049;-75
2020/12/20 10:40:40;;;;;;;32.30;15.68;;;;;;;2.93;93.61;100917.71;1732383;82;21403;-76
2020/12/20 10:43:08;;;;;;;29.95;14.47;;;;;;;2.93;93.90;100916.35;1732267;82;20954;-77
2020/12/20 10:45:35;;;;;;;25.50;12.40;;;;;;;2.95;93.98;100909.64;1732404;82;21018;-72
2020/12/20 10:48:02;;;;;;;29.15;14.07;;;;;;;2.98;93.65;100911.06;1732311;82;21061;-77
2020/12/20 10:50:30;;;;;;;29.60;13.05;;;;;;;2.96;93.47;100905.04;1732485;82;21072;-80
2020/12/20 10:52:57;;;;;;;26.73;12.40;;;;;;;2.96;93.56;100915.36;1732448;82;21219;-77
2020/12/20 10:55:26;;;;;;;104.80;31.77;;;;;;;2.95;93.37;100908.81;1726455;82;21567;-77
2020/12/20 10:57:54;;;;;;;37.05;16.60;;;;;;;2.92;93.32;100911.98;1726102;83;21073;-71
2020/12/20 11:00:22;;;;;;;31.33;14.78;;;;;;;2.92;93.31;100907.92;1726141;83;21080;-79
2020/12/20 11:02:49;;;;;;;27.15;13.68;;;;;;;2.90;93.35;100908.15;1726139;83;21473;-80
2020/12/20 11:05:19;;;;;;;25.37;13.85;;;;;;;2.90;93.09;100905.44;1723953;83;21384;-82
2020/12/20 11:07:47;;;;;;;27.98;13.68;;;;;;;2.89;93.13;100907.85;1725441;83;21107;-81
2020/12/20 11:10:14;;;;;;;31.87;13.93;;;;;;;2.89;93.23;100905.67;1725378;83;21057;-82
2020/12/20 11:12:43;;;;;;;25.75;13.48;;;;;;;2.89;93.13;100902.42;1725428;83;21203;-79
2020/12/20 11:15:11;;;;;;;29.70;14.28;;;;;;;2.88;92.71;100902.69;1728714;83;21100;-79
2020/12/20 11:17:39;;;;;;;31.07;15.13;;;;;;;2.84;92.53;100906.92;1728916;83;21213;-82
2020/12/20 11:20:07;;;;;;;24.52;11.93;;;;;;;2.81;92.37;100905.50;1728446;83;21166;-79
2020/12/20 11:22:34;;;;;;;22.98;12.15;;;;;;;2.79;92.31;100904.08;1727199;83;21002;-83
2020/12/20 11:25:01;;;;;;;24.18;12.43;;;;;;;2.78;92.37;100903.78;1726624;82;20958;-80
2020/12/20 11:27:28;;;;;;;27.02;13.83;;;;;;;2.78;92.40;100904.61;1726751;83;20973;-85
2020/12/20 11:29:56;;;;;;;28.52;14.40;;;;;;;2.78;92.41;100907.32;1704597;82;21399;-81